sensor_id;sensor_type;location;lat;lon;timestamp;P1;durP1;ratioP1;P2;durP2;ratioP2
20069;SDS011;10195;50.868;4.382;2023-06-22T00:00:42;5.70;;;4.88;;
20069;SDS011;10195;50.868;4.382;2023-06-22T00:03:08;7.80;;;4.65;;
20069;SDS011;10195;50.868;4.382;2023-06-22T00:05:34;6.32;;;4.65;;
20069;SDS011;10195;50.868;4.382;2023-06-22T00:08:03;7.50;;;5.07;;
20069;SDS011;10195;50.868;4.382;2023-06-22T00:10:32;7.13;;;4.32;;
20069;SDS011;10195;50.868;4.382;2023-06-22T00:12:58;11.07;;;5.07;;
20069;SDS011;10195;50.868;4.382;2023-06-22T00:15:23;6.18;;;4.57;;
20069;SDS011;10195;50.868;4.382;2023-06-22T00:17:49;9.35;;;5.28;;
20069;SDS011;10195;50.868;4.382;2023-06-22T00:20:15;7.57;;;4.72;;
20069;SDS011;10195;50.868;4.382;2023-06-22T00:22:43;5.60;;;5.00;;
20069;SDS011;10195;50.868;4.382;2023-06-22T00:25:13;7.95;;;4.88;;
20069;SDS011;10195;50.868;4.382;2023-06-22T00:27:38;8.60;;;5.30;;
20069;SDS011;10195;50.868;4.382;2023-06-22T00:30:04;8.50;;;5.10;;
20069;SDS011;10195;50.868;4.382;2023-06-22T00:32:30;8.77;;;5.10;;
20069;SDS011;10195;50.868;4.382;2023-06-22T00:34:56;7.45;;;5.40;;
20069;SDS011;10195;50.868;4.382;2023-06-22T00:37:21;7.70;;;5.63;;
20069;SDS011;10195;50.868;4.382;2023-06-22T00:39:50;9.07;;;5.75;;
20069;SDS011;10195;50.868;4.382;2023-06-22T00:42:16;12.07;;;5.80;;
20069;SDS011;10195;50.868;4.382;2023-06-22T00:44:42;6.75;;;4.97;;
20069;SDS011;10195;50.868;4.382;2023-06-22T00:47:09;6.43;;;5.07;;
20069;SDS011;10195;50.868;4.382;2023-06-22T00:49:37;6.25;;;5.05;;
20069;SDS011;10195;50.868;4.382;2023-06-22T00:52:04;11.55;;;6.00;;
20069;SDS011;10195;50.868;4.382;2023-06-22T00:54:34;6.78;;;5.35;;
20069;SDS011;10195;50.868;4.382;2023-06-22T00:57:01;6.88;;;5.30;;
20069;SDS011;10195;50.868;4.382;2023-06-22T00:59:27;7.70;;;4.80;;
20069;SDS011;10195;50.868;4.382;2023-06-22T01:01:53;8.38;;;5.63;;
20069;SDS011;10195;50.868;4.382;2023-06-22T01:04:19;7.53;;;5.80;;
20069;SDS011;10195;50.868;4.382;2023-06-22T01:06:55;8.63;;;5.43;;
20069;SDS011;10195;50.868;4.382;2023-06-22T01:09:31;10.07;;;5.53;;
20069;SDS011;10195;50.868;4.382;2023-06-22T01:12:06;5.53;;;4.78;;
20069;SDS011;10195;50.868;4.382;2023-06-22T01:17:33;7.45;;;5.05;;
20069;SDS011;10195;50.868;4.382;2023-06-22T01:20:00;9.27;;;5.18;;
20069;SDS011;10195;50.868;4.382;2023-06-22T01:22:30;8.15;;;5.07;;
20069;SDS011;10195;50.868;4.382;2023-06-22T01:25:09;7.53;;;4.97;;
20069;SDS011;10195;50.868;4.382;2023-06-22T01:30:40;7.50;;;4.95;;
20069;SDS011;10195;50.868;4.382;2023-06-22T01:33:08;9.82;;;5.40;;
20069;SDS011;10195;50.868;4.382;2023-06-22T01:35:36;6.50;;;4.95;;
20069;SDS011;10195;50.868;4.382;2023-06-22T01:38:03;7.90;;;4.90;;
20069;SDS011;10195;50.868;4.382;2023-06-22T01:40:29;6.72;;;5.00;;
20069;SDS011;10195;50.868;4.382;2023-06-22T01:42:56;5.25;;;4.53;;
20069;SDS011;10195;50.868;4.382;2023-06-22T01:45:23;6.75;;;4.90;;
20069;SDS011;10195;50.868;4.382;2023-06-22T01:47:50;8.38;;;5.13;;
20069;SDS011;10195;50.868;4.382;2023-06-22T01:50:16;7.43;;;5.10;;
20069;SDS011;10195;50.868;4.382;2023-06-22T01:52:42;9.50;;;5.38;;
20069;SDS011;10195;50.868;4.382;2023-06-22T01:55:08;8.65;;;4.68;;
20069;SDS011;10195;50.868;4.382;2023-06-22T01:57:33;10.05;;;4.90;;
20069;SDS011;10195;50.868;4.382;2023-06-22T02:00:00;6.32;;;5.18;;
20069;SDS011;10195;50.868;4.382;2023-06-22T02:02:37;11.30;;;4.90;;
20069;SDS011;10195;50.868;4.382;2023-06-22T02:05:09;7.50;;;4.93;;
20069;SDS011;10195;50.868;4.382;2023-06-22T02:07:44;7.35;;;5.15;;
20069;SDS011;10195;50.868;4.382;2023-06-22T02:10:14;8.77;;;4.75;;
20069;SDS011;10195;50.868;4.382;2023-06-22T02:12:42;8.40;;;4.72;;
20069;SDS011;10195;50.868;4.382;2023-06-22T02:15:09;8.80;;;5.63;;
20069;SDS011;10195;50.868;4.382;2023-06-22T02:17:37;6.18;;;5.03;;
20069;SDS011;10195;50.868;4.382;2023-06-22T02:20:03;8.50;;;5.68;;
20069;SDS011;10195;50.868;4.382;2023-06-22T02:22:33;8.18;;;5.20;;
20069;SDS011;10195;50.868;4.382;2023-06-22T02:24:59;7.43;;;4.90;;
20069;SDS011;10195;50.868;4.382;2023-06-22T02:27:25;7.15;;;5.38;;
20069;SDS011;10195;50.868;4.382;2023-06-22T02:29:51;7.15;;;5.38;;
20069;SDS011;10195;50.868;4.382;2023-06-22T02:32:16;11.35;;;5.78;;
20069;SDS011;10195;50.868;4.382;2023-06-22T02:34:43;8.18;;;5.70;;
20069;SDS011;10195;50.868;4.382;2023-06-22T02:37:12;6.35;;;5.00;;
20069;SDS011;10195;50.868;4.382;2023-06-22T02:39:39;6.90;;;5.15;;
20069;SDS011;10195;50.868;4.382;2023-06-22T02:42:06;8.73;;;5.43;;
20069;SDS011;10195;50.868;4.382;2023-06-22T02:44:31;7.07;;;5.30;;
20069;SDS011;10195;50.868;4.382;2023-06-22T02:46:57;9.25;;;5.25;;
20069;SDS011;10195;50.868;4.382;2023-06-22T02:49:23;8.38;;;6.25;;
20069;SDS011;10195;50.868;4.382;2023-06-22T02:51:49;11.85;;;5.60;;
20069;SDS011;10195;50.868;4.382;2023-06-22T02:54:15;8.75;;;5.47;;
20069;SDS011;10195;50.868;4.382;2023-06-22T02:56:41;8.18;;;5.70;;
20069;SDS011;10195;50.868;4.382;2023-06-22T02:59:09;9.35;;;5.82;;
20069;SDS011;10195;50.868;4.382;2023-06-22T03:01:35;8.35;;;6.30;;
20069;SDS011;10195;50.868;4.382;2023-06-22T03:04:04;12.98;;;7.07;;
20069;SDS011;10195;50.868;4.382;2023-06-22T03:06:31;8.52;;;5.68;;
20069;SDS011;10195;50.868;4.382;2023-06-22T03:08:59;9.20;;;6.22;;
20069;SDS011;10195;50.868;4.382;2023-06-22T03:11:26;9.10;;;6.07;;
20069;SDS011;10195;50.868;4.382;2023-06-22T03:13:51;8.20;;;5.63;;
20069;SDS011;10195;50.868;4.382;2023-06-22T03:16:18;10.73;;;6.15;;
20069;SDS011;10195;50.868;4.382;2023-06-22T03:18:44;15.77;;;6.63;;
20069;SDS011;10195;50.868;4.382;2023-06-22T03:21:10;7.47;;;5.90;;
20069;SDS011;10195;50.868;4.382;2023-06-22T03:23:35;11.52;;;6.60;;
20069;SDS011;10195;50.868;4.382;2023-06-22T03:26:01;11.45;;;7.32;;
20069;SDS011;10195;50.868;4.382;2023-06-22T03:28:27;11.98;;;6.40;;
20069;SDS011;10195;50.868;4.382;2023-06-22T03:30:53;9.93;;;6.55;;
20069;SDS011;10195;50.868;4.382;2023-06-22T03:33:19;16.77;;;6.70;;
20069;SDS011;10195;50.868;4.382;2023-06-22T03:35:45;11.43;;;7.20;;
20069;SDS011;10195;50.868;4.382;2023-06-22T03:38:10;8.25;;;6.50;;
20069;SDS011;10195;50.868;4.382;2023-06-22T03:40:36;10.32;;;6.38;;
20069;SDS011;10195;50.868;4.382;2023-06-22T03:43:01;12.48;;;7.55;;
20069;SDS011;10195;50.868;4.382;2023-06-22T03:45:27;30.05;;;10.02;;
20069;SDS011;10195;50.868;4.382;2023-06-22T03:47:53;19.77;;;9.00;;
20069;SDS011;10195;50.868;4.382;2023-06-22T03:50:18;26.23;;;8.68;;
20069;SDS011;10195;50.868;4.382;2023-06-22T03:52:45;24.23;;;9.35;;
20069;SDS011;10195;50.868;4.382;2023-06-22T03:55:11;17.25;;;8.18;;
20069;SDS011;10195;50.868;4.382;2023-06-22T03:57:37;19.83;;;8.40;;
20069;SDS011;10195;50.868;4.382;2023-06-22T04:00:02;24.10;;;8.98;;
20069;SDS011;10195;50.868;4.382;2023-06-22T04:02:31;17.20;;;8.02;;
20069;SDS011;10195;50.868;4.382;2023-06-22T04:04:57;22.30;;;8.25;;
20069;SDS011;10195;50.868;4.382;2023-06-22T04:07:22;18.50;;;8.45;;
20069;SDS011;10195;50.868;4.382;2023-06-22T04:09:48;20.48;;;9.73;;
20069;SDS011;10195;50.868;4.382;2023-06-22T04:12:14;19.60;;;9.10;;
20069;SDS011;10195;50.868;4.382;2023-06-22T04:14:39;25.20;;;9.80;;
20069;SDS011;10195;50.868;4.382;2023-06-22T04:17:05;20.27;;;8.85;;
20069;SDS011;10195;50.868;4.382;2023-06-22T04:19:30;17.70;;;8.85;;
20069;SDS011;10195;50.868;4.382;2023-06-22T04:21:56;16.88;;;8.57;;
20069;SDS011;10195;50.868;4.382;2023-06-22T04:24:22;15.77;;;8.93;;
20069;SDS011;10195;50.868;4.382;2023-06-22T04:26:47;12.82;;;7.75;;
20069;SDS011;10195;50.868;4.382;2023-06-22T04:29:13;13.70;;;9.13;;
20069;SDS011;10195;50.868;4.382;2023-06-22T04:31:39;13.80;;;9.18;;
20069;SDS011;10195;50.868;4.382;2023-06-22T04:34:05;13.93;;;8.93;;
20069;SDS011;10195;50.868;4.382;2023-06-22T04:36:34;10.25;;;7.50;;
20069;SDS011;10195;50.868;4.382;2023-06-22T04:39:03;14.35;;;8.43;;
20069;SDS011;10195;50.868;4.382;2023-06-22T04:41:34;10.43;;;6.88;;
20069;SDS011;10195;50.868;4.382;2023-06-22T04:44:13;14.10;;;8.48;;
20069;SDS011;10195;50.868;4.382;2023-06-22T04:46:48;13.57;;;8.88;;
20069;SDS011;10195;50.868;4.382;2023-06-22T04:49:19;14.15;;;9.65;;
20069;SDS011;10195;50.868;4.382;2023-06-22T04:51:46;13.27;;;9.43;;
20069;SDS011;10195;50.868;4.382;2023-06-22T04:54:11;15.35;;;9.27;;
20069;SDS011;10195;50.868;4.382;2023-06-22T04:56:37;18.08;;;9.52;;
20069;SDS011;10195;50.868;4.382;2023-06-22T04:59:05;12.90;;;8.45;;
20069;SDS011;10195;50.868;4.382;2023-06-22T05:01:31;13.48;;;9.32;;
20069;SDS011;10195;50.868;4.382;2023-06-22T05:03:57;12.88;;;9.05;;
20069;SDS011;10195;50.868;4.382;2023-06-22T05:06:25;19.80;;;10.27;;
20069;SDS011;10195;50.868;4.382;2023-06-22T05:08:53;15.27;;;9.75;;
20069;SDS011;10195;50.868;4.382;2023-06-22T05:11:24;14.60;;;9.77;;
20069;SDS011;10195;50.868;4.382;2023-06-22T05:13:53;15.60;;;10.02;;
20069;SDS011;10195;50.868;4.382;2023-06-22T05:16:19;15.73;;;9.60;;
20069;SDS011;10195;50.868;4.382;2023-06-22T05:18:52;17.10;;;11.07;;
20069;SDS011;10195;50.868;4.382;2023-06-22T05:21:22;14.52;;;11.00;;
20069;SDS011;10195;50.868;4.382;2023-06-22T05:23:48;14.38;;;10.48;;
20069;SDS011;10195;50.868;4.382;2023-06-22T05:26:14;16.02;;;9.50;;
20069;SDS011;10195;50.868;4.382;2023-06-22T05:28:40;15.00;;;9.80;;
20069;SDS011;10195;50.868;4.382;2023-06-22T05:31:06;14.40;;;10.30;;
20069;SDS011;10195;50.868;4.382;2023-06-22T05:33:31;16.85;;;9.82;;
20069;SDS011;10195;50.868;4.382;2023-06-22T05:35:57;17.65;;;10.73;;
20069;SDS011;10195;50.868;4.382;2023-06-22T05:38:22;15.40;;;10.65;;
20069;SDS011;10195;50.868;4.382;2023-06-22T05:40:48;14.80;;;10.50;;
20069;SDS011;10195;50.868;4.382;2023-06-22T05:43:14;15.05;;;10.68;;
20069;SDS011;10195;50.868;4.382;2023-06-22T05:45:40;16.23;;;10.90;;
20069;SDS011;10195;50.868;4.382;2023-06-22T05:48:05;15.57;;;10.82;;
20069;SDS011;10195;50.868;4.382;2023-06-22T05:50:31;16.17;;;11.25;;
20069;SDS011;10195;50.868;4.382;2023-06-22T05:52:56;19.42;;;11.02;;
20069;SDS011;10195;50.868;4.382;2023-06-22T05:55:22;16.25;;;11.18;;
20069;SDS011;10195;50.868;4.382;2023-06-22T05:57:48;16.08;;;11.10;;
20069;SDS011;10195;50.868;4.382;2023-06-22T06:00:13;16.17;;;10.85;;
20069;SDS011;10195;50.868;4.382;2023-06-22T06:02:39;18.10;;;11.48;;
20069;SDS011;10195;50.868;4.382;2023-06-22T06:05:08;22.48;;;12.27;;
20069;SDS011;10195;50.868;4.382;2023-06-22T06:07:43;20.90;;;12.27;;
20069;SDS011;10195;50.868;4.382;2023-06-22T06:10:09;23.77;;;12.95;;
20069;SDS011;10195;50.868;4.382;2023-06-22T06:12:35;20.70;;;12.50;;
20069;SDS011;10195;50.868;4.382;2023-06-22T06:15:01;18.33;;;12.50;;
20069;SDS011;10195;50.868;4.382;2023-06-22T06:17:27;27.00;;;13.80;;
20069;SDS011;10195;50.868;4.382;2023-06-22T06:19:53;22.40;;;12.90;;
20069;SDS011;10195;50.868;4.382;2023-06-22T06:22:19;27.30;;;13.98;;
20069;SDS011;10195;50.868;4.382;2023-06-22T06:24:46;20.40;;;14.25;;
20069;SDS011;10195;50.868;4.382;2023-06-22T06:27:12;25.15;;;14.50;;
20069;SDS011;10195;50.868;4.382;2023-06-22T06:29:38;24.08;;;15.10;;
20069;SDS011;10195;50.868;4.382;2023-06-22T06:32:04;19.38;;;13.50;;
20069;SDS011;10195;50.868;4.382;2023-06-22T06:34:30;23.95;;;13.98;;
20069;SDS011;10195;50.868;4.382;2023-06-22T06:36:55;25.50;;;13.90;;
20069;SDS011;10195;50.868;4.382;2023-06-22T06:39:21;20.02;;;14.50;;
20069;SDS011;10195;50.868;4.382;2023-06-22T06:41:47;22.17;;;14.27;;
20069;SDS011;10195;50.868;4.382;2023-06-22T06:44:12;20.33;;;13.35;;
20069;SDS011;10195;50.868;4.382;2023-06-22T06:46:38;21.10;;;14.20;;
20069;SDS011;10195;50.868;4.382;2023-06-22T06:49:04;21.85;;;13.57;;
20069;SDS011;10195;50.868;4.382;2023-06-22T06:51:29;21.15;;;14.55;;
20069;SDS011;10195;50.868;4.382;2023-06-22T06:53:55;19.38;;;13.73;;
20069;SDS011;10195;50.868;4.382;2023-06-22T06:56:20;22.67;;;14.18;;
20069;SDS011;10195;50.868;4.382;2023-06-22T06:58:46;22.60;;;14.55;;
20069;SDS011;10195;50.868;4.382;2023-06-22T07:01:12;26.35;;;14.30;;
20069;SDS011;10195;50.868;4.382;2023-06-22T07:03:38;23.75;;;13.32;;
20069;SDS011;10195;50.868;4.382;2023-06-22T07:06:04;24.58;;;14.70;;
20069;SDS011;10195;50.868;4.382;2023-06-22T07:08:29;18.08;;;14.02;;
20069;SDS011;10195;50.868;4.382;2023-06-22T07:10:55;19.70;;;13.98;;
20069;SDS011;10195;50.868;4.382;2023-06-22T07:13:21;19.73;;;14.02;;
20069;SDS011;10195;50.868;4.382;2023-06-22T07:15:47;21.98;;;14.30;;
20069;SDS011;10195;50.868;4.382;2023-06-22T07:18:12;18.92;;;14.13;;
20069;SDS011;10195;50.868;4.382;2023-06-22T07:20:38;17.02;;;13.75;;
20069;SDS011;10195;50.868;4.382;2023-06-22T07:23:04;21.80;;;13.52;;
20069;SDS011;10195;50.868;4.382;2023-06-22T07:25:30;19.50;;;13.00;;
20069;SDS011;10195;50.868;4.382;2023-06-22T07:28:03;23.13;;;14.35;;
20069;SDS011;10195;50.868;4.382;2023-06-22T07:30:30;22.33;;;13.95;;
20069;SDS011;10195;50.868;4.382;2023-06-22T07:32:57;20.33;;;13.88;;
20069;SDS011;10195;50.868;4.382;2023-06-22T07:35:28;18.35;;;13.48;;
20069;SDS011;10195;50.868;4.382;2023-06-22T07:37:54;21.75;;;13.85;;
20069;SDS011;10195;50.868;4.382;2023-06-22T07:40:20;22.35;;;14.52;;
20069;SDS011;10195;50.868;4.382;2023-06-22T07:42:46;19.55;;;14.18;;
20069;SDS011;10195;50.868;4.382;2023-06-22T07:45:13;21.83;;;14.80;;
20069;SDS011;10195;50.868;4.382;2023-06-22T07:47:39;20.20;;;14.02;;
20069;SDS011;10195;50.868;4.382;2023-06-22T07:50:05;19.27;;;13.60;;
20069;SDS011;10195;50.868;4.382;2023-06-22T07:52:31;19.33;;;14.23;;
20069;SDS011;10195;50.868;4.382;2023-06-22T07:54:57;19.25;;;13.88;;
20069;SDS011;10195;50.868;4.382;2023-06-22T07:57:23;20.38;;;13.52;;
20069;SDS011;10195;50.868;4.382;2023-06-22T07:59:57;20.40;;;13.63;;
20069;SDS011;10195;50.868;4.382;2023-06-22T08:02:23;20.15;;;13.85;;
20069;SDS011;10195;50.868;4.382;2023-06-22T08:04:49;22.30;;;13.30;;
20069;SDS011;10195;50.868;4.382;2023-06-22T08:07:15;24.02;;;14.07;;
20069;SDS011;10195;50.868;4.382;2023-06-22T08:09:45;18.42;;;11.88;;
20069;SDS011;10195;50.868;4.382;2023-06-22T08:12:12;21.30;;;13.68;;
20069;SDS011;10195;50.868;4.382;2023-06-22T08:14:38;24.83;;;14.63;;
20069;SDS011;10195;50.868;4.382;2023-06-22T08:17:04;16.58;;;13.13;;
20069;SDS011;10195;50.868;4.382;2023-06-22T08:19:30;15.45;;;13.13;;
20069;SDS011;10195;50.868;4.382;2023-06-22T08:21:56;17.90;;;13.77;;
20069;SDS011;10195;50.868;4.382;2023-06-22T08:24:22;22.55;;;14.70;;
20069;SDS011;10195;50.868;4.382;2023-06-22T08:26:51;17.67;;;13.85;;
20069;SDS011;10195;50.868;4.382;2023-06-22T08:29:17;18.48;;;14.35;;
20069;SDS011;10195;50.868;4.382;2023-06-22T08:31:42;20.27;;;13.77;;
20069;SDS011;10195;50.868;4.382;2023-06-22T08:34:08;17.65;;;14.10;;
20069;SDS011;10195;50.868;4.382;2023-06-22T08:36:34;22.23;;;14.93;;
20069;SDS011;10195;50.868;4.382;2023-06-22T08:39:06;20.40;;;14.77;;
20069;SDS011;10195;50.868;4.382;2023-06-22T08:41:32;32.17;;;13.10;;
20069;SDS011;10195;50.868;4.382;2023-06-22T08:43:57;19.80;;;13.88;;
20069;SDS011;10195;50.868;4.382;2023-06-22T08:46:23;21.23;;;14.52;;
20069;SDS011;10195;50.868;4.382;2023-06-22T08:48:55;22.88;;;15.68;;
20069;SDS011;10195;50.868;4.382;2023-06-22T08:51:22;27.20;;;14.90;;
20069;SDS011;10195;50.868;4.382;2023-06-22T08:53:48;23.27;;;14.45;;
20069;SDS011;10195;50.868;4.382;2023-06-22T08:56:14;22.05;;;14.52;;
20069;SDS011;10195;50.868;4.382;2023-06-22T08:58:40;27.42;;;14.40;;
20069;SDS011;10195;50.868;4.382;2023-06-22T09:01:06;19.23;;;13.75;;
20069;SDS011;10195;50.868;4.382;2023-06-22T09:03:31;26.88;;;13.93;;
20069;SDS011;10195;50.868;4.382;2023-06-22T09:05:58;22.85;;;14.07;;
20069;SDS011;10195;50.868;4.382;2023-06-22T09:08:24;24.45;;;14.23;;
20069;SDS011;10195;50.868;4.382;2023-06-22T09:10:49;20.35;;;13.98;;
20069;SDS011;10195;50.868;4.382;2023-06-22T09:13:15;22.55;;;14.30;;
20069;SDS011;10195;50.868;4.382;2023-06-22T09:15:41;25.55;;;15.40;;
20069;SDS011;10195;50.868;4.382;2023-06-22T09:18:09;26.25;;;15.27;;
20069;SDS011;10195;50.868;4.382;2023-06-22T09:20:36;26.05;;;14.15;;
20069;SDS011;10195;50.868;4.382;2023-06-22T09:23:01;19.92;;;13.90;;
20069;SDS011;10195;50.868;4.382;2023-06-22T09:25:27;23.05;;;14.25;;
20069;SDS011;10195;50.868;4.382;2023-06-22T09:27:53;23.02;;;14.55;;
20069;SDS011;10195;50.868;4.382;2023-06-22T09:30:19;22.50;;;14.43;;
20069;SDS011;10195;50.868;4.382;2023-06-22T09:32:45;20.00;;;13.48;;
20069;SDS011;10195;50.868;4.382;2023-06-22T09:35:10;22.50;;;12.93;;
20069;SDS011;10195;50.868;4.382;2023-06-22T09:37:38;20.50;;;12.95;;
20069;SDS011;10195;50.868;4.382;2023-06-22T09:40:05;17.85;;;13.18;;
20069;SDS011;10195;50.868;4.382;2023-06-22T09:42:36;20.10;;;13.35;;
20069;SDS011;10195;50.868;4.382;2023-06-22T09:45:02;20.55;;;13.25;;
20069;SDS011;10195;50.868;4.382;2023-06-22T09:47:29;20.38;;;13.80;;
20069;SDS011;10195;50.868;4.382;2023-06-22T09:49:54;18.90;;;13.98;;
20069;SDS011;10195;50.868;4.382;2023-06-22T09:52:20;21.23;;;14.65;;
20069;SDS011;10195;50.868;4.382;2023-06-22T09:54:47;17.10;;;14.82;;
20069;SDS011;10195;50.868;4.382;2023-06-22T09:57:12;25.77;;;15.73;;
20069;SDS011;10195;50.868;4.382;2023-06-22T09:59:38;25.35;;;15.95;;
20069;SDS011;10195;50.868;4.382;2023-06-22T10:02:07;30.10;;;15.88;;
20069;SDS011;10195;50.868;4.382;2023-06-22T10:04:33;23.60;;;16.25;;
20069;SDS011;10195;50.868;4.382;2023-06-22T10:06:59;18.27;;;13.60;;
20069;SDS011;10195;50.868;4.382;2023-06-22T10:09:26;20.70;;;14.15;;
20069;SDS011;10195;50.868;4.382;2023-06-22T10:11:51;20.60;;;13.57;;
20069;SDS011;10195;50.868;4.382;2023-06-22T10:14:17;15.38;;;12.10;;
20069;SDS011;10195;50.868;4.382;2023-06-22T10:16:43;19.80;;;13.95;;
20069;SDS011;10195;50.868;4.382;2023-06-22T10:19:08;21.23;;;14.00;;
20069;SDS011;10195;50.868;4.382;2023-06-22T10:21:34;20.63;;;14.93;;
20069;SDS011;10195;50.868;4.382;2023-06-22T10:24:01;20.45;;;14.77;;
20069;SDS011;10195;50.868;4.382;2023-06-22T10:26:31;21.17;;;14.48;;
20069;SDS011;10195;50.868;4.382;2023-06-22T10:28:57;23.70;;;14.95;;
20069;SDS011;10195;50.868;4.382;2023-06-22T10:31:23;25.75;;;16.35;;
20069;SDS011;10195;50.868;4.382;2023-06-22T10:33:49;27.98;;;17.20;;
20069;SDS011;10195;50.868;4.382;2023-06-22T10:36:14;20.40;;;16.00;;
20069;SDS011;10195;50.868;4.382;2023-06-22T10:38:40;23.67;;;17.88;;
20069;SDS011;10195;50.868;4.382;2023-06-22T10:41:07;24.40;;;18.42;;
20069;SDS011;10195;50.868;4.382;2023-06-22T10:43:32;24.83;;;18.85;;
20069;SDS011;10195;50.868;4.382;2023-06-22T10:45:58;20.52;;;17.25;;
20069;SDS011;10195;50.868;4.382;2023-06-22T10:48:24;23.58;;;17.40;;
20069;SDS011;10195;50.868;4.382;2023-06-22T10:50:49;20.38;;;17.23;;
20069;SDS011;10195;50.868;4.382;2023-06-22T10:53:15;23.38;;;18.48;;
20069;SDS011;10195;50.868;4.382;2023-06-22T10:55:40;24.80;;;20.08;;
20069;SDS011;10195;50.868;4.382;2023-06-22T10:58:06;27.42;;;21.77;;
20069;SDS011;10195;50.868;4.382;2023-06-22T11:00:32;29.85;;;21.65;;
20069;SDS011;10195;50.868;4.382;2023-06-22T11:02:58;41.70;;;22.98;;
20069;SDS011;10195;50.868;4.382;2023-06-22T11:05:23;32.15;;;22.00;;
20069;SDS011;10195;50.868;4.382;2023-06-22T11:07:49;33.08;;;22.73;;
20069;SDS011;10195;50.868;4.382;2023-06-22T11:10:15;27.25;;;21.40;;
20069;SDS011;10195;50.868;4.382;2023-06-22T11:12:41;23.75;;;19.08;;
20069;SDS011;10195;50.868;4.382;2023-06-22T11:15:07;28.90;;;21.02;;
20069;SDS011;10195;50.868;4.382;2023-06-22T11:17:34;28.38;;;21.45;;
20069;SDS011;10195;50.868;4.382;2023-06-22T11:19:59;26.48;;;21.33;;
20069;SDS011;10195;50.868;4.382;2023-06-22T11:22:25;25.08;;;20.80;;
20069;SDS011;10195;50.868;4.382;2023-06-22T11:24:51;31.27;;;21.13;;
20069;SDS011;10195;50.868;4.382;2023-06-22T11:27:17;26.75;;;20.85;;
20069;SDS011;10195;50.868;4.382;2023-06-22T11:29:43;28.13;;;20.52;;
20069;SDS011;10195;50.868;4.382;2023-06-22T11:32:08;26.52;;;20.63;;
20069;SDS011;10195;50.868;4.382;2023-06-22T11:34:34;22.95;;;19.77;;
20069;SDS011;10195;50.868;4.382;2023-06-22T11:37:00;24.08;;;18.10;;
20069;SDS011;10195;50.868;4.382;2023-06-22T11:39:26;24.27;;;17.90;;
20069;SDS011;10195;50.868;4.382;2023-06-22T11:41:52;24.95;;;18.45;;
20069;SDS011;10195;50.868;4.382;2023-06-22T11:44:17;27.35;;;20.20;;
20069;SDS011;10195;50.868;4.382;2023-06-22T11:46:43;22.92;;;17.73;;
20069;SDS011;10195;50.868;4.382;2023-06-22T11:49:09;25.35;;;19.13;;
20069;SDS011;10195;50.868;4.382;2023-06-22T11:51:34;27.10;;;19.83;;
20069;SDS011;10195;50.868;4.382;2023-06-22T11:54:00;24.05;;;18.83;;
20069;SDS011;10195;50.868;4.382;2023-06-22T11:56:27;24.45;;;18.83;;
20069;SDS011;10195;50.868;4.382;2023-06-22T11:58:53;23.08;;;18.20;;
20069;SDS011;10195;50.868;4.382;2023-06-22T12:01:19;25.02;;;20.52;;
20069;SDS011;10195;50.868;4.382;2023-06-22T12:03:45;28.08;;;20.80;;
20069;SDS011;10195;50.868;4.382;2023-06-22T12:06:14;25.88;;;20.10;;
20069;SDS011;10195;50.868;4.382;2023-06-22T12:08:39;27.35;;;19.52;;
20069;SDS011;10195;50.868;4.382;2023-06-22T12:11:05;25.73;;;19.40;;
20069;SDS011;10195;50.868;4.382;2023-06-22T12:13:30;22.67;;;18.73;;
20069;SDS011;10195;50.868;4.382;2023-06-22T12:15:56;27.58;;;20.88;;
20069;SDS011;10195;50.868;4.382;2023-06-22T12:18:22;25.95;;;19.83;;
20069;SDS011;10195;50.868;4.382;2023-06-22T12:20:47;28.35;;;20.58;;
20069;SDS011;10195;50.868;4.382;2023-06-22T12:23:14;26.55;;;20.08;;
20069;SDS011;10195;50.868;4.382;2023-06-22T12:25:40;28.33;;;20.13;;
20069;SDS011;10195;50.868;4.382;2023-06-22T12:28:06;26.85;;;20.08;;
20069;SDS011;10195;50.868;4.382;2023-06-22T12:30:34;24.42;;;20.80;;
20069;SDS011;10195;50.868;4.382;2023-06-22T12:33:00;24.98;;;20.80;;
20069;SDS011;10195;50.868;4.382;2023-06-22T12:35:25;30.70;;;22.13;;
20069;SDS011;10195;50.868;4.382;2023-06-22T12:37:51;28.88;;;20.77;;
20069;SDS011;10195;50.868;4.382;2023-06-22T12:40:17;25.42;;;22.58;;
20069;SDS011;10195;50.868;4.382;2023-06-22T12:42:44;28.85;;;22.17;;
20069;SDS011;10195;50.868;4.382;2023-06-22T12:45:10;30.30;;;24.00;;
20069;SDS011;10195;50.868;4.382;2023-06-22T12:47:36;32.67;;;22.90;;
20069;SDS011;10195;50.868;4.382;2023-06-22T12:50:01;30.75;;;23.05;;
20069;SDS011;10195;50.868;4.382;2023-06-22T12:52:29;29.75;;;23.30;;
20069;SDS011;10195;50.868;4.382;2023-06-22T12:54:56;34.30;;;25.50;;
20069;SDS011;10195;50.868;4.382;2023-06-22T12:57:22;29.42;;;24.20;;
20069;SDS011;10195;50.868;4.382;2023-06-22T12:59:48;35.28;;;26.05;;
20069;SDS011;10195;50.868;4.382;2023-06-22T13:02:14;32.58;;;25.45;;
20069;SDS011;10195;50.868;4.382;2023-06-22T13:04:40;33.88;;;26.08;;
20069;SDS011;10195;50.868;4.382;2023-06-22T13:07:05;34.33;;;25.77;;
20069;SDS011;10195;50.868;4.382;2023-06-22T13:09:31;33.65;;;25.38;;
20069;SDS011;10195;50.868;4.382;2023-06-22T13:11:57;35.22;;;25.67;;
20069;SDS011;10195;50.868;4.382;2023-06-22T13:14:23;42.08;;;28.05;;
20069;SDS011;10195;50.868;4.382;2023-06-22T13:16:49;33.88;;;28.30;;
20069;SDS011;10195;50.868;4.382;2023-06-22T13:19:14;37.60;;;28.90;;
20069;SDS011;10195;50.868;4.382;2023-06-22T13:21:41;34.90;;;28.35;;
20069;SDS011;10195;50.868;4.382;2023-06-22T13:24:06;35.70;;;28.17;;
20069;SDS011;10195;50.868;4.382;2023-06-22T13:26:32;38.08;;;28.90;;
20069;SDS011;10195;50.868;4.382;2023-06-22T13:28:58;41.13;;;30.80;;
20069;SDS011;10195;50.868;4.382;2023-06-22T13:31:24;39.88;;;29.20;;
20069;SDS011;10195;50.868;4.382;2023-06-22T13:33:49;35.80;;;27.85;;
20069;SDS011;10195;50.868;4.382;2023-06-22T13:36:17;37.42;;;27.60;;
20069;SDS011;10195;50.868;4.382;2023-06-22T13:38:43;36.10;;;27.23;;
20069;SDS011;10195;50.868;4.382;2023-06-22T13:41:08;38.25;;;27.00;;
20069;SDS011;10195;50.868;4.382;2023-06-22T13:43:34;37.83;;;27.13;;
20069;SDS011;10195;50.868;4.382;2023-06-22T13:46:00;36.20;;;27.73;;
20069;SDS011;10195;50.868;4.382;2023-06-22T13:48:25;35.20;;;26.23;;
20069;SDS011;10195;50.868;4.382;2023-06-22T13:50:53;35.33;;;26.58;;
20069;SDS011;10195;50.868;4.382;2023-06-22T13:53:19;31.15;;;21.75;;
20069;SDS011;10195;50.868;4.382;2023-06-22T13:55:44;34.22;;;26.35;;
20069;SDS011;10195;50.868;4.382;2023-06-22T13:58:10;30.40;;;24.85;;
20069;SDS011;10195;50.868;4.382;2023-06-22T14:00:35;36.10;;;24.98;;
20069;SDS011;10195;50.868;4.382;2023-06-22T14:03:01;24.65;;;18.13;;
20069;SDS011;10195;50.868;4.382;2023-06-22T14:05:27;36.13;;;27.20;;
20069;SDS011;10195;50.868;4.382;2023-06-22T14:07:53;38.63;;;27.80;;
20069;SDS011;10195;50.868;4.382;2023-06-22T14:10:18;35.65;;;29.20;;
20069;SDS011;10195;50.868;4.382;2023-06-22T14:12:44;36.30;;;27.45;;
20069;SDS011;10195;50.868;4.382;2023-06-22T14:15:10;34.53;;;28.90;;
20069;SDS011;10195;50.868;4.382;2023-06-22T14:17:36;35.55;;;26.92;;
20069;SDS011;10195;50.868;4.382;2023-06-22T14:20:01;36.65;;;26.92;;
20069;SDS011;10195;50.868;4.382;2023-06-22T14:22:28;30.85;;;25.35;;
20069;SDS011;10195;50.868;4.382;2023-06-22T14:24:54;34.00;;;25.23;;
20069;SDS011;10195;50.868;4.382;2023-06-22T14:27:22;36.17;;;26.58;;
20069;SDS011;10195;50.868;4.382;2023-06-22T14:29:48;39.30;;;28.05;;